createdAt,value
2018-05-13T00:00:32.441Z,18.90
2018-05-13T00:02:59.901Z,18.90
2018-05-13T00:05:27.578Z,18.90
2018-05-13T00:07:55.713Z,18.90
2018-05-13T00:10:23.185Z,18.80
2018-05-13T00:12:50.753Z,18.70
2018-05-13T00:15:18.238Z,18.60
2018-05-13T00:17:45.774Z,18.50
2018-05-13T00:20:13.245Z,18.50
2018-05-13T00:22:40.703Z,18.50
2018-05-13T00:25:08.238Z,18.50
2018-05-13T00:27:35.873Z,18.50
2018-05-13T00:30:03.462Z,18.50
2018-05-13T00:32:31.221Z,18.50
2018-05-13T00:34:58.869Z,18.50
2018-05-13T00:37:26.440Z,18.40
2018-05-13T00:39:53.925Z,18.30
2018-05-13T00:42:21.601Z,18.20
2018-05-13T00:44:49.122Z,18.10
2018-05-13T00:47:16.790Z,18.00
2018-05-13T00:49:44.332Z,18.00
2018-05-13T00:52:11.801Z,17.90
2018-05-13T00:54:51.112Z,17.80
2018-05-13T00:57:18.593Z,17.80
2018-05-13T00:59:46.157Z,17.70
2018-05-13T01:02:13.830Z,17.70
2018-05-13T01:04:41.369Z,17.60
2018-05-13T01:07:09.141Z,17.60
2018-05-13T01:09:36.889Z,17.50
2018-05-13T01:12:04.646Z,17.50
2018-05-13T01:14:32.293Z,17.40
2018-05-13T01:16:59.828Z,17.40
2018-05-13T01:19:27.337Z,17.30
2018-05-13T01:21:55.102Z,17.30
2018-05-13T01:24:22.869Z,17.30
2018-05-13T01:26:50.637Z,17.20
2018-05-13T01:29:18.393Z,17.20
2018-05-13T01:31:45.981Z,17.20
2018-05-13T01:34:14.229Z,17.20
2018-05-13T01:36:41.874Z,17.20
2018-05-13T01:39:09.454Z,17.20
2018-05-13T01:41:36.934Z,17.10
2018-05-13T01:44:04.670Z,17.00
2018-05-13T01:46:32.446Z,17.00
2018-05-13T01:49:00.202Z,16.90
2018-05-13T01:51:27.833Z,16.90
2018-05-13T01:53:55.417Z,16.80
2018-05-13T01:56:23.058Z,16.80
2018-05-13T01:58:50.632Z,16.90
2018-05-13T02:01:18.252Z,16.80
2018-05-13T02:03:45.729Z,16.80
2018-05-13T02:06:13.192Z,16.80
2018-05-13T02:08:40.661Z,16.80
2018-05-13T02:11:09.452Z,16.70
2018-05-13T02:13:37.101Z,16.70
2018-05-13T02:16:04.588Z,16.70
2018-05-13T02:18:32.964Z,16.70
2018-05-13T02:21:00.416Z,16.70
2018-05-13T02:23:27.881Z,16.70
2018-05-13T02:25:55.416Z,16.70
2018-05-13T02:28:23.190Z,16.70
2018-05-13T02:30:50.879Z,16.70
2018-05-13T02:33:18.320Z,16.70
2018-05-13T02:35:45.857Z,16.70
2018-05-13T02:38:13.330Z,16.70
2018-05-13T02:40:40.792Z,16.70
2018-05-13T02:43:08.385Z,16.70
2018-05-13T02:45:35.884Z,16.70
2018-05-13T02:48:03.455Z,16.70
2018-05-13T02:50:31.217Z,16.60
2018-05-13T02:52:58.671Z,16.50
2018-05-13T02:55:26.438Z,16.50
2018-05-13T02:57:54.200Z,16.50
2018-05-13T03:00:21.672Z,16.40
2018-05-13T03:02:49.342Z,16.40
2018-05-13T03:05:16.810Z,16.30
2018-05-13T03:07:44.280Z,16.30
2018-05-13T03:10:11.741Z,16.20
2018-05-13T03:12:39.208Z,16.20
2018-05-13T03:15:06.714Z,16.20
2018-05-13T03:17:34.190Z,16.10
2018-05-13T03:20:01.836Z,16.20
2018-05-13T03:22:30.226Z,16.20
2018-05-13T03:24:57.764Z,16.20
2018-05-13T03:27:25.524Z,16.20
2018-05-13T03:29:52.987Z,16.20
2018-05-13T03:32:20.464Z,16.30
2018-05-13T03:34:48.117Z,16.20
2018-05-13T03:37:15.579Z,16.20
2018-05-13T03:39:43.117Z,16.20
2018-05-13T03:42:10.882Z,16.20
2018-05-13T03:44:38.517Z,16.20
2018-05-13T03:47:06.094Z,16.20
2018-05-13T03:49:33.867Z,16.20
2018-05-13T03:52:01.324Z,16.20
2018-05-13T03:54:29.076Z,16.30
2018-05-13T03:56:56.537Z,16.30
2018-05-13T03:59:24.015Z,16.30
2018-05-13T04:01:51.637Z,16.20
2018-05-13T04:04:19.221Z,16.20
2018-05-13T04:06:46.985Z,16.30
2018-05-13T04:09:26.138Z,16.30
2018-05-13T04:12:05.465Z,16.30
2018-05-13T04:14:55.442Z,16.30
2018-05-13T04:17:24.002Z,16.20
2018-05-13T04:19:51.489Z,16.40
2018-05-13T04:22:19.038Z,16.50
2018-05-13T04:24:46.734Z,16.50
2018-05-13T04:27:14.249Z,16.50
2018-05-13T04:29:41.715Z,16.40
2018-05-13T04:32:09.177Z,16.40
2018-05-13T04:34:36.851Z,16.40
2018-05-13T04:37:04.385Z,16.40
2018-05-13T04:39:32.026Z,16.40
2018-05-13T04:41:59.502Z,16.40
2018-05-13T04:44:26.953Z,16.40
2018-05-13T04:46:54.437Z,16.50
2018-05-13T04:49:21.888Z,16.50
2018-05-13T04:51:49.438Z,16.40
2018-05-13T04:54:16.904Z,16.50
2018-05-13T04:56:44.531Z,16.60
2018-05-13T04:59:12.015Z,16.60
2018-05-13T05:01:40.480Z,16.70
2018-05-13T05:04:08.254Z,16.70
2018-05-13T05:06:36.008Z,16.70
2018-05-13T05:09:03.515Z,16.70
2018-05-13T05:11:31.228Z,16.90
2018-05-13T05:13:58.992Z,16.90
2018-05-13T05:16:26.761Z,16.90
2018-05-13T05:18:54.413Z,16.90
2018-05-13T05:21:21.990Z,16.80
2018-05-13T05:23:49.745Z,16.80
2018-05-13T05:26:17.387Z,16.70
2018-05-13T05:28:44.845Z,16.80
2018-05-13T05:31:12.336Z,16.80
2018-05-13T05:33:39.810Z,16.90
2018-05-13T05:36:07.534Z,17.00
2018-05-13T05:38:35.105Z,17.00
2018-05-13T05:41:02.861Z,17.20
2018-05-13T05:43:30.633Z,17.20
2018-05-13T05:45:58.221Z,17.30
2018-05-13T05:48:26.471Z,17.40
2018-05-13T05:50:53.932Z,17.40
2018-05-13T05:53:21.694Z,17.50
2018-05-13T05:55:49.457Z,17.40
2018-05-13T05:58:17.139Z,17.30
2018-05-13T06:00:44.664Z,17.30
2018-05-13T06:03:12.342Z,17.40
2018-05-13T06:05:39.902Z,17.40
2018-05-13T06:08:07.444Z,17.40
2018-05-13T06:10:34.988Z,17.40
2018-05-13T06:13:02.501Z,17.40
2018-05-13T06:15:29.970Z,17.60
2018-05-13T06:17:57.429Z,17.60
2018-05-13T06:20:24.898Z,17.70
2018-05-13T06:22:52.369Z,17.80
2018-05-13T06:25:19.914Z,17.90
2018-05-13T06:27:47.617Z,18.10
2018-05-13T06:30:15.768Z,18.30
2018-05-13T06:32:43.325Z,18.40
2018-05-13T06:35:10.801Z,18.50
2018-05-13T06:37:38.266Z,18.50
2018-05-13T06:40:05.769Z,18.60
2018-05-13T06:42:33.226Z,18.70
2018-05-13T06:45:00.708Z,18.80
2018-05-13T06:47:28.168Z,18.90
2018-05-13T06:49:55.636Z,19.00
2018-05-13T06:52:23.093Z,19.00
2018-05-13T06:54:50.564Z,19.10
2018-05-13T06:57:18.034Z,19.20
2018-05-13T06:59:45.488Z,19.30
2018-05-13T07:02:12.954Z,19.50
2018-05-13T07:04:40.408Z,19.60
2018-05-13T07:07:08.636Z,19.80
2018-05-13T07:09:36.094Z,19.80
2018-05-13T07:12:03.552Z,19.90
2018-05-13T07:14:31.008Z,20.00
2018-05-13T07:16:58.476Z,20.10
2018-05-13T07:19:25.960Z,20.20
2018-05-13T07:21:53.428Z,20.20
2018-05-13T07:24:20.961Z,20.30
2018-05-13T07:26:48.727Z,20.30
2018-05-13T07:29:16.587Z,20.30
2018-05-13T07:31:44.761Z,20.40
2018-05-13T07:34:12.324Z,20.40
2018-05-13T07:36:39.787Z,20.50
2018-05-13T07:39:07.462Z,20.60
2018-05-13T07:41:35.009Z,20.60
2018-05-13T07:44:02.664Z,20.70
2018-05-13T07:46:31.145Z,20.70
2018-05-13T07:48:58.616Z,20.70
2018-05-13T07:51:26.916Z,20.80
2018-05-13T07:53:54.433Z,20.80
2018-05-13T07:56:22.076Z,20.90
2018-05-13T07:58:49.657Z,20.90
2018-05-13T08:01:17.428Z,21.00
2018-05-13T08:03:45.072Z,21.00
2018-05-13T08:06:12.714Z,21.20
2018-05-13T08:08:40.300Z,21.20
2018-05-13T08:11:07.781Z,21.20
2018-05-13T08:13:35.321Z,21.20
2018-05-13T08:16:02.956Z,21.20
2018-05-13T08:18:30.535Z,21.30
2018-05-13T08:20:57.993Z,21.30
2018-05-13T08:23:25.764Z,21.40
2018-05-13T08:25:53.248Z,21.50
2018-05-13T08:28:20.720Z,21.60
2018-05-13T08:30:48.182Z,21.70
2018-05-13T08:33:15.638Z,21.80
2018-05-13T08:35:43.097Z,21.90
2018-05-13T08:38:10.555Z,22.00
2018-05-13T08:40:38.047Z,22.00
2018-05-13T08:43:05.496Z,22.00
2018-05-13T08:45:32.964Z,22.00
2018-05-13T08:48:00.443Z,21.90
2018-05-13T08:50:27.904Z,21.90
2018-05-13T08:52:55.364Z,21.80
2018-05-13T08:55:23.613Z,21.80
2018-05-13T08:57:51.060Z,21.80
2018-05-13T09:00:18.528Z,21.80
2018-05-13T09:02:45.992Z,21.70
2018-05-13T09:05:13.448Z,21.80
2018-05-13T09:07:40.937Z,21.90
2018-05-13T09:10:08.408Z,21.90
2018-05-13T09:12:35.885Z,22.00
2018-05-13T09:15:03.347Z,22.10
2018-05-13T09:17:30.813Z,22.10
2018-05-13T09:19:58.275Z,22.20
2018-05-13T09:22:25.742Z,22.20
2018-05-13T09:24:53.192Z,22.20
2018-05-13T09:27:20.723Z,22.30
2018-05-13T09:29:48.169Z,22.30
2018-05-13T09:32:15.781Z,22.40
2018-05-13T09:34:43.416Z,22.40
2018-05-13T09:37:10.884Z,22.40
2018-05-13T09:39:38.349Z,22.50
2018-05-13T09:42:05.812Z,22.60
2018-05-13T09:44:33.268Z,22.70
2018-05-13T09:47:00.734Z,22.70
2018-05-13T09:49:28.202Z,22.70
2018-05-13T09:51:55.667Z,22.70
2018-05-13T09:54:23.135Z,22.70
2018-05-13T09:56:50.585Z,22.80
2018-05-13T09:59:18.051Z,22.80
2018-05-13T10:01:45.520Z,22.90
2018-05-13T10:04:13.048Z,23.00
2018-05-13T10:06:40.454Z,23.00
2018-05-13T10:09:07.925Z,22.90
2018-05-13T10:11:35.415Z,23.00
2018-05-13T10:14:02.864Z,23.00
2018-05-13T10:16:30.328Z,23.00
2018-05-13T10:18:57.796Z,22.90
2018-05-13T10:21:25.253Z,22.90
2018-05-13T10:23:52.710Z,22.90
2018-05-13T10:26:20.168Z,22.90
2018-05-13T10:28:47.639Z,23.00
2018-05-13T10:31:15.109Z,23.10
2018-05-13T10:33:42.569Z,23.20
2018-05-13T10:36:10.061Z,23.30
2018-05-13T10:38:37.523Z,23.30
2018-05-13T10:41:05.100Z,23.30
2018-05-13T10:43:33.317Z,23.40
2018-05-13T10:46:00.790Z,23.40
2018-05-13T10:48:28.297Z,23.40
2018-05-13T10:50:56.533Z,23.50
2018-05-13T10:53:23.990Z,23.50
2018-05-13T10:55:51.476Z,23.60
2018-05-13T10:58:18.922Z,23.50
2018-05-13T11:00:46.398Z,23.50
2018-05-13T11:03:13.850Z,23.40
2018-05-13T11:05:41.605Z,23.40
2018-05-13T11:08:09.143Z,23.50
2018-05-13T11:10:36.596Z,23.50
2018-05-13T11:13:04.065Z,23.60
2018-05-13T11:15:31.577Z,23.70
2018-05-13T11:17:59.036Z,23.80
2018-05-13T11:20:26.487Z,23.80
2018-05-13T11:22:53.954Z,23.80
2018-05-13T11:25:21.419Z,23.80
2018-05-13T11:27:48.912Z,23.80
2018-05-13T11:30:16.384Z,23.90
2018-05-13T11:32:43.890Z,24.00
2018-05-13T11:35:11.336Z,24.10
2018-05-13T11:37:38.873Z,24.20
2018-05-13T11:40:06.253Z,24.30
2018-05-13T11:42:33.715Z,24.40
2018-05-13T11:45:01.168Z,24.50
2018-05-13T11:47:28.636Z,24.50
2018-05-13T11:49:56.115Z,24.60
2018-05-13T11:52:23.595Z,24.50
2018-05-13T11:54:51.059Z,24.50
2018-05-13T11:57:18.514Z,24.40
2018-05-13T11:59:45.968Z,24.30
2018-05-13T12:02:13.491Z,24.30
2018-05-13T12:04:40.921Z,24.40
2018-05-13T12:07:08.364Z,24.40
2018-05-13T12:09:35.844Z,24.40
2018-05-13T12:12:03.300Z,24.50
2018-05-13T12:14:30.772Z,24.50
2018-05-13T12:16:58.229Z,24.50
2018-05-13T12:19:25.705Z,24.50
2018-05-13T12:21:53.157Z,24.50
2018-05-13T12:24:20.631Z,24.40
2018-05-13T12:26:48.086Z,24.30
2018-05-13T12:29:15.656Z,24.20
2018-05-13T12:31:43.178Z,24.20
2018-05-13T12:34:10.644Z,24.20
2018-05-13T12:36:38.102Z,24.20
2018-05-13T12:39:05.570Z,24.20
2018-05-13T12:41:33.042Z,24.30
2018-05-13T12:44:00.501Z,24.50
2018-05-13T12:46:27.990Z,24.60
2018-05-13T12:48:55.429Z,24.60
2018-05-13T12:51:22.917Z,24.50
2018-05-13T12:53:50.373Z,24.40
2018-05-13T12:56:17.883Z,24.40
2018-05-13T12:58:45.323Z,24.30
2018-05-13T13:01:12.784Z,24.20
2018-05-13T13:03:40.311Z,24.20
2018-05-13T13:06:08.493Z,24.40
2018-05-13T13:08:35.978Z,24.40
2018-05-13T13:11:03.720Z,24.50
2018-05-13T13:13:31.177Z,24.60
2018-05-13T13:15:58.639Z,24.70
2018-05-13T13:18:26.117Z,24.80
2018-05-13T13:20:53.582Z,24.90
2018-05-13T13:23:21.059Z,25.00
2018-05-13T13:25:48.548Z,25.00
2018-05-13T13:28:15.977Z,25.10
2018-05-13T13:30:43.523Z,25.20
2018-05-13T13:33:10.907Z,25.10
2018-05-13T13:35:38.360Z,25.10
2018-05-13T13:38:05.839Z,25.20
2018-05-13T13:40:33.317Z,25.30
2018-05-13T13:43:00.783Z,25.40
2018-05-13T13:45:28.225Z,25.40
2018-05-13T13:47:55.692Z,25.50
2018-05-13T13:50:23.947Z,25.50
2018-05-13T13:52:51.391Z,25.50
2018-05-13T13:55:18.844Z,25.40
2018-05-13T13:57:46.329Z,25.30
2018-05-13T14:00:13.860Z,25.10
2018-05-13T14:02:41.262Z,25.10
2018-05-13T14:05:08.709Z,25.00
2018-05-13T14:07:36.166Z,24.90
2018-05-13T14:10:03.618Z,24.90
2018-05-13T14:12:31.092Z,24.80
2018-05-13T14:14:58.557Z,24.80
2018-05-13T14:17:26.208Z,24.80
2018-05-13T14:19:53.762Z,24.70
2018-05-13T14:22:21.421Z,24.50
2018-05-13T14:24:48.884Z,24.40
2018-05-13T14:27:16.355Z,24.30
2018-05-13T14:29:43.838Z,24.20
2018-05-13T14:32:11.339Z,24.10
2018-05-13T14:34:38.817Z,24.00
2018-05-13T14:37:06.556Z,23.90
2018-05-13T14:39:34.848Z,23.60
2018-05-13T14:42:02.324Z,23.60
2018-05-13T14:44:29.831Z,23.50
2018-05-13T14:46:57.341Z,23.30
2018-05-13T14:49:24.805Z,23.20
2018-05-13T14:51:52.261Z,23.10
2018-05-13T14:54:20.038Z,22.90
2018-05-13T14:56:47.701Z,22.70
2018-05-13T14:59:15.202Z,22.60
2018-05-13T15:01:42.977Z,22.40
2018-05-13T15:04:11.396Z,22.30
2018-05-13T15:06:39.122Z,22.20
2018-05-13T15:09:07.477Z,22.10
2018-05-13T15:11:34.962Z,22.00
2018-05-13T15:14:02.709Z,22.00
2018-05-13T15:16:30.570Z,21.90
2018-05-13T15:18:58.105Z,21.80
2018-05-13T15:21:25.579Z,21.70
2018-05-13T15:23:53.149Z,21.60
2018-05-13T15:26:20.915Z,21.50
2018-05-13T15:28:48.680Z,21.40
2018-05-13T15:31:16.324Z,21.30
2018-05-13T15:33:43.900Z,21.10
2018-05-13T15:36:11.673Z,21.00
2018-05-13T15:38:39.914Z,20.70
2018-05-13T15:41:07.385Z,20.70
2018-05-13T15:43:34.878Z,20.60
2018-05-13T15:46:02.349Z,20.60
2018-05-13T15:48:29.804Z,20.60
2018-05-13T15:50:57.317Z,20.60
2018-05-13T15:53:24.776Z,20.60
2018-05-13T15:55:52.557Z,20.60
2018-05-13T15:58:20.154Z,20.60
2018-05-13T16:00:47.629Z,20.60
2018-05-13T16:03:15.144Z,20.50
2018-05-13T16:05:42.675Z,20.40
2018-05-13T16:08:10.445Z,20.20
2018-05-13T16:10:37.989Z,20.10
2018-05-13T16:13:05.577Z,20.00
2018-05-13T16:15:33.043Z,19.90
2018-05-13T16:18:00.510Z,19.90
2018-05-13T16:20:28.033Z,20.00
2018-05-13T16:22:55.682Z,20.10
2018-05-13T16:25:23.258Z,20.10
2018-05-13T16:27:50.720Z,20.10
2018-05-13T16:30:19.008Z,20.00
2018-05-13T16:32:46.478Z,20.00
2018-05-13T16:35:13.997Z,20.00
2018-05-13T16:37:41.469Z,19.90
2018-05-13T16:40:08.924Z,19.80
2018-05-13T16:42:37.184Z,19.90
2018-05-13T16:45:04.648Z,19.90
2018-05-13T16:47:32.100Z,19.90
2018-05-13T16:50:00.530Z,19.80
2018-05-13T16:52:28.046Z,19.80
2018-05-13T16:54:55.809Z,19.80
2018-05-13T16:57:23.274Z,19.80
2018-05-13T16:59:50.741Z,19.80
2018-05-13T17:02:18.245Z,19.70
2018-05-13T17:04:45.841Z,19.70
2018-05-13T17:07:13.309Z,19.70
2018-05-13T17:09:40.863Z,19.80
2018-05-13T17:12:08.264Z,19.90
2018-05-13T17:14:35.730Z,19.80
2018-05-13T17:17:03.238Z,19.90
2018-05-13T17:19:31.484Z,19.90
2018-05-13T17:21:58.967Z,19.90
2018-05-13T17:24:26.445Z,19.80
2018-05-13T17:26:53.892Z,19.80
2018-05-13T17:29:21.356Z,19.80
2018-05-13T17:31:48.830Z,19.70
2018-05-13T17:34:16.403Z,19.70
2018-05-13T17:36:43.825Z,19.60
2018-05-13T17:39:11.308Z,19.60
2018-05-13T17:41:38.931Z,19.60
2018-05-13T17:44:06.396Z,19.60
2018-05-13T17:46:34.854Z,19.50
2018-05-13T17:49:02.805Z,19.50
2018-05-13T17:51:30.306Z,19.40
2018-05-13T17:53:57.773Z,19.40
2018-05-13T17:56:25.296Z,19.30
2018-05-13T17:58:53.065Z,19.30
2018-05-13T18:01:20.826Z,19.30
2018-05-13T18:03:48.411Z,19.20
2018-05-13T18:06:16.772Z,19.10
2018-05-13T18:08:44.424Z,19.10
2018-05-13T18:11:12.193Z,19.10
2018-05-13T18:13:39.834Z,19.10
2018-05-13T18:16:07.318Z,19.00
2018-05-13T18:18:35.688Z,18.90
2018-05-13T18:21:03.248Z,18.80
2018-05-13T18:23:30.708Z,18.80
2018-05-13T18:25:58.460Z,18.60
2018-05-13T18:28:25.934Z,18.50
2018-05-13T18:30:53.548Z,18.50
2018-05-13T18:33:21.056Z,18.40
2018-05-13T18:35:48.528Z,18.40
2018-05-13T18:38:16.003Z,18.40
2018-05-13T18:40:43.448Z,18.40
2018-05-13T18:43:10.913Z,18.40
2018-05-13T18:45:38.368Z,18.30
2018-05-13T18:48:05.839Z,18.40
2018-05-13T18:50:33.302Z,18.30
2018-05-13T18:53:00.773Z,18.10
2018-05-13T18:55:28.252Z,18.10
2018-05-13T18:57:55.716Z,18.00
2018-05-13T19:00:23.346Z,18.00
2018-05-13T19:02:50.818Z,17.90
2018-05-13T19:05:18.393Z,17.90
2018-05-13T19:07:45.851Z,17.90
2018-05-13T19:10:13.484Z,17.90
2018-05-13T19:12:40.996Z,17.90
2018-05-13T19:15:08.473Z,17.90
2018-05-13T19:17:35.935Z,17.90
2018-05-13T19:20:03.400Z,17.90
2018-05-13T19:22:31.196Z,17.90
2018-05-13T19:24:58.955Z,17.90
2018-05-13T19:27:26.666Z,17.90
2018-05-13T19:29:54.106Z,17.90
2018-05-13T19:32:21.567Z,17.90
2018-05-13T19:34:49.020Z,18.00
2018-05-13T19:37:16.484Z,18.00
2018-05-13T19:39:43.997Z,18.00
2018-05-13T19:42:11.448Z,18.00
2018-05-13T19:44:38.912Z,18.00
2018-05-13T19:47:06.382Z,17.90
2018-05-13T19:49:33.859Z,17.70
2018-05-13T19:52:01.323Z,17.70
2018-05-13T19:54:28.790Z,17.70
2018-05-13T19:56:56.512Z,17.80
2018-05-13T19:59:24.284Z,17.80
2018-05-13T20:01:51.761Z,17.80
2018-05-13T20:04:19.379Z,17.80
2018-05-13T20:06:46.876Z,17.80
2018-05-13T20:09:14.460Z,17.80
2018-05-13T20:11:41.874Z,17.80
2018-05-13T20:14:09.388Z,17.80
2018-05-13T20:16:37.001Z,17.80
2018-05-13T20:19:04.484Z,17.80
2018-05-13T20:21:32.000Z,17.70
2018-05-13T20:23:59.460Z,17.70
2018-05-13T20:26:26.928Z,17.70
2018-05-13T20:28:54.546Z,17.70
2018-05-13T20:31:22.124Z,17.70
2018-05-13T20:33:49.585Z,17.70
2018-05-13T20:36:17.049Z,17.70
2018-05-13T20:38:44.683Z,17.70
2018-05-13T20:41:12.229Z,17.70
2018-05-13T20:43:39.717Z,17.70
2018-05-13T20:46:07.181Z,17.70
2018-05-13T20:48:34.833Z,17.60
2018-05-13T20:51:02.288Z,17.60
2018-05-13T20:53:29.862Z,17.60
2018-05-13T20:55:57.314Z,17.60
2018-05-13T20:58:25.073Z,17.60
2018-05-13T21:00:52.540Z,17.60
2018-05-13T21:03:20.017Z,17.60
2018-05-13T21:05:47.464Z,17.60
2018-05-13T21:08:15.222Z,17.60
2018-05-13T21:10:42.657Z,17.60
2018-05-13T21:13:10.129Z,17.50
2018-05-13T21:15:37.576Z,17.50
2018-05-13T21:18:05.346Z,17.50
2018-05-13T21:20:32.805Z,17.70
2018-05-13T21:23:00.494Z,17.60
2018-05-13T21:25:27.936Z,17.70
2018-05-13T21:27:55.405Z,17.70
2018-05-13T21:30:22.861Z,17.80
2018-05-13T21:32:50.340Z,17.80
2018-05-13T21:35:17.796Z,17.80
2018-05-13T21:37:45.306Z,17.70
2018-05-13T21:40:12.769Z,17.70
2018-05-13T21:42:40.227Z,17.60
2018-05-13T21:45:07.692Z,17.70
2018-05-13T21:47:35.447Z,17.70
2018-05-13T21:50:03.205Z,17.80
2018-05-13T21:52:30.660Z,17.80
2018-05-13T21:54:58.130Z,17.90
2018-05-13T21:57:25.580Z,17.90
2018-05-13T21:59:53.054Z,17.90
2018-05-13T22:02:20.696Z,17.90
2018-05-13T22:05:02.080Z,17.90
2018-05-13T22:07:29.526Z,17.90
2018-05-13T22:09:57.104Z,17.90
2018-05-13T22:12:24.565Z,17.90
2018-05-13T22:14:52.218Z,17.90
2018-05-13T22:17:19.669Z,17.90
2018-05-13T22:19:48.049Z,17.90
2018-05-13T22:22:15.513Z,17.90
2018-05-13T22:24:43.269Z,17.80
2018-05-13T22:27:11.035Z,17.70
2018-05-13T22:29:38.679Z,17.70
2018-05-13T22:32:06.205Z,17.60
2018-05-13T22:34:33.678Z,17.50
2018-05-13T22:37:01.129Z,17.50
2018-05-13T22:39:28.630Z,17.40
2018-05-13T22:41:56.400Z,17.40
2018-05-13T22:44:24.170Z,17.40
2018-05-13T22:46:51.629Z,17.50
2018-05-13T22:49:19.198Z,17.50
2018-05-13T22:51:47.429Z,17.40
2018-05-13T22:54:15.094Z,17.40
2018-05-13T22:56:42.555Z,17.40
2018-05-13T22:59:10.116Z,17.40
2018-05-13T23:01:37.591Z,17.50
2018-05-13T23:04:05.344Z,17.50
2018-05-13T23:06:32.813Z,17.50
2018-05-13T23:09:00.465Z,17.60
2018-05-13T23:11:27.946Z,17.70
2018-05-13T23:13:55.484Z,17.70
2018-05-13T23:16:23.169Z,17.70
2018-05-13T23:18:50.697Z,17.70
2018-05-13T23:21:18.465Z,17.70
2018-05-13T23:23:45.924Z,17.70
2018-05-13T23:26:13.693Z,17.80
2018-05-13T23:28:41.453Z,17.80
2018-05-13T23:31:09.225Z,17.80
2018-05-13T23:33:36.872Z,17.80
2018-05-13T23:36:04.338Z,17.80
2018-05-13T23:38:31.813Z,17.80
2018-05-13T23:40:59.272Z,17.80
2018-05-13T23:43:26.815Z,17.80
2018-05-13T23:45:54.193Z,17.90
2018-05-13T23:48:21.656Z,17.90
2018-05-13T23:50:49.112Z,17.80
2018-05-13T23:53:16.639Z,17.90
2018-05-13T23:55:44.260Z,17.90
2018-05-13T23:58:11.769Z,17.90
